sensor_id;sensor_type;location;lat;lon;timestamp;temperature;humidity
17827;DHT22;9038;48.208;16.308;2023-01-15T00:00:12;8.50;61.40
17827;DHT22;9038;48.208;16.308;2023-01-15T00:02:14;8.50;61.30
17827;DHT22;9038;48.208;16.308;2023-01-15T00:04:17;8.50;61.30
17827;DHT22;9038;48.208;16.308;2023-01-15T00:06:20;8.50;61.40
17827;DHT22;9038;48.208;16.308;2023-01-15T00:08:22;8.50;61.40
17827;DHT22;9038;48.208;16.308;2023-01-15T00:10:24;8.50;61.40
17827;DHT22;9038;48.208;16.308;2023-01-15T00:12:27;8.60;61.50
17827;DHT22;9038;48.208;16.308;2023-01-15T00:14:29;8.60;61.40
17827;DHT22;9038;48.208;16.308;2023-01-15T00:16:31;8.60;61.50
17827;DHT22;9038;48.208;16.308;2023-01-15T00:18:33;8.60;61.50
17827;DHT22;9038;48.208;16.308;2023-01-15T00:20:35;8.60;61.30
17827;DHT22;9038;48.208;16.308;2023-01-15T00:22:37;8.60;61.40
17827;DHT22;9038;48.208;16.308;2023-01-15T00:24:40;8.60;61.30
17827;DHT22;9038;48.208;16.308;2023-01-15T00:26:59;8.70;61.40
17827;DHT22;9038;48.208;16.308;2023-01-15T00:29:21;8.60;61.40
17827;DHT22;9038;48.208;16.308;2023-01-15T00:31:23;8.70;61.70
17827;DHT22;9038;48.208;16.308;2023-01-15T00:33:26;8.60;61.50
17827;DHT22;9038;48.208;16.308;2023-01-15T00:35:28;8.60;61.50
17827;DHT22;9038;48.208;16.308;2023-01-15T00:37:30;8.60;61.70
17827;DHT22;9038;48.208;16.308;2023-01-15T00:39:32;8.70;61.60
17827;DHT22;9038;48.208;16.308;2023-01-15T00:41:35;8.60;61.60
17827;DHT22;9038;48.208;16.308;2023-01-15T00:43:36;8.60;61.50
17827;DHT22;9038;48.208;16.308;2023-01-15T00:45:40;8.60;61.60
17827;DHT22;9038;48.208;16.308;2023-01-15T00:47:43;8.60;61.60
17827;DHT22;9038;48.208;16.308;2023-01-15T00:49:47;8.50;61.70
17827;DHT22;9038;48.208;16.308;2023-01-15T00:51:50;8.50;61.80
17827;DHT22;9038;48.208;16.308;2023-01-15T00:53:52;8.50;61.80
17827;DHT22;9038;48.208;16.308;2023-01-15T00:55:53;8.50;61.70
17827;DHT22;9038;48.208;16.308;2023-01-15T00:57:55;8.50;61.70
17827;DHT22;9038;48.208;16.308;2023-01-15T00:59:57;8.50;61.70
17827;DHT22;9038;48.208;16.308;2023-01-15T01:02:01;8.50;61.80
17827;DHT22;9038;48.208;16.308;2023-01-15T01:04:02;8.40;61.80
17827;DHT22;9038;48.208;16.308;2023-01-15T01:06:05;8.40;61.90
17827;DHT22;9038;48.208;16.308;2023-01-15T01:08:07;8.50;61.90
17827;DHT22;9038;48.208;16.308;2023-01-15T01:10:09;8.50;61.90
17827;DHT22;9038;48.208;16.308;2023-01-15T01:12:11;8.50;62.00
17827;DHT22;9038;48.208;16.308;2023-01-15T01:14:13;8.50;61.80
17827;DHT22;9038;48.208;16.308;2023-01-15T01:16:27;8.50;62.20
17827;DHT22;9038;48.208;16.308;2023-01-15T01:18:32;8.50;62.40
17827;DHT22;9038;48.208;16.308;2023-01-15T01:20:37;8.50;62.30
17827;DHT22;9038;48.208;16.308;2023-01-15T01:22:39;8.50;62.40
17827;DHT22;9038;48.208;16.308;2023-01-15T01:24:41;8.40;62.40
17827;DHT22;9038;48.208;16.308;2023-01-15T01:26:43;8.40;62.60
17827;DHT22;9038;48.208;16.308;2023-01-15T01:28:48;8.40;62.60
17827;DHT22;9038;48.208;16.308;2023-01-15T01:30:50;8.40;62.60
17827;DHT22;9038;48.208;16.308;2023-01-15T01:32:52;8.50;62.80
17827;DHT22;9038;48.208;16.308;2023-01-15T01:34:55;8.50;62.70
17827;DHT22;9038;48.208;16.308;2023-01-15T01:36:57;8.40;63.00
17827;DHT22;9038;48.208;16.308;2023-01-15T01:39:00;8.40;63.10
17827;DHT22;9038;48.208;16.308;2023-01-15T01:41:02;8.40;63.20
17827;DHT22;9038;48.208;16.308;2023-01-15T01:43:05;8.40;63.20
17827;DHT22;9038;48.208;16.308;2023-01-15T01:45:18;8.50;63.30
17827;DHT22;9038;48.208;16.308;2023-01-15T01:47:25;8.50;63.30
17827;DHT22;9038;48.208;16.308;2023-01-15T01:49:28;8.40;63.20
17827;DHT22;9038;48.208;16.308;2023-01-15T01:51:34;8.40;63.40
17827;DHT22;9038;48.208;16.308;2023-01-15T01:53:37;8.40;63.40
17827;DHT22;9038;48.208;16.308;2023-01-15T01:55:40;8.40;64.30
17827;DHT22;9038;48.208;16.308;2023-01-15T01:57:42;8.40;63.40
17827;DHT22;9038;48.208;16.308;2023-01-15T01:59:46;8.50;63.40
17827;DHT22;9038;48.208;16.308;2023-01-15T02:01:49;8.50;63.50
17827;DHT22;9038;48.208;16.308;2023-01-15T02:03:52;8.50;63.60
17827;DHT22;9038;48.208;16.308;2023-01-15T02:05:55;8.50;63.70
17827;DHT22;9038;48.208;16.308;2023-01-15T02:08:00;8.50;63.80
17827;DHT22;9038;48.208;16.308;2023-01-15T02:10:02;8.40;63.90
17827;DHT22;9038;48.208;16.308;2023-01-15T02:12:09;8.40;64.00
17827;DHT22;9038;48.208;16.308;2023-01-15T02:14:14;8.40;64.00
17827;DHT22;9038;48.208;16.308;2023-01-15T02:16:22;8.40;63.90
17827;DHT22;9038;48.208;16.308;2023-01-15T02:18:30;8.50;64.00
17827;DHT22;9038;48.208;16.308;2023-01-15T02:20:37;8.50;64.00
17827;DHT22;9038;48.208;16.308;2023-01-15T02:22:48;8.40;64.10
17827;DHT22;9038;48.208;16.308;2023-01-15T02:25:04;8.40;64.20
17827;DHT22;9038;48.208;16.308;2023-01-15T02:27:14;8.30;64.80
17827;DHT22;9038;48.208;16.308;2023-01-15T02:29:21;8.30;65.00
17827;DHT22;9038;48.208;16.308;2023-01-15T02:31:28;8.20;65.20
17827;DHT22;9038;48.208;16.308;2023-01-15T02:33:34;8.20;65.50
17827;DHT22;9038;48.208;16.308;2023-01-15T02:35:40;8.30;65.60
17827;DHT22;9038;48.208;16.308;2023-01-15T02:37:47;8.20;65.80
17827;DHT22;9038;48.208;16.308;2023-01-15T02:39:51;8.20;66.10
17827;DHT22;9038;48.208;16.308;2023-01-15T02:41:59;8.10;66.60
17827;DHT22;9038;48.208;16.308;2023-01-15T02:44:04;8.10;66.90
17827;DHT22;9038;48.208;16.308;2023-01-15T02:46:09;8.00;67.00
17827;DHT22;9038;48.208;16.308;2023-01-15T02:48:14;8.10;67.00
17827;DHT22;9038;48.208;16.308;2023-01-15T02:50:22;8.10;67.00
17827;DHT22;9038;48.208;16.308;2023-01-15T02:52:28;8.10;67.20
17827;DHT22;9038;48.208;16.308;2023-01-15T02:54:40;8.10;67.50
17827;DHT22;9038;48.208;16.308;2023-01-15T02:56:48;8.00;67.40
17827;DHT22;9038;48.208;16.308;2023-01-15T02:58:52;8.10;67.50
17827;DHT22;9038;48.208;16.308;2023-01-15T03:00:59;8.10;67.70
17827;DHT22;9038;48.208;16.308;2023-01-15T03:03:08;8.10;67.80
17827;DHT22;9038;48.208;16.308;2023-01-15T03:05:16;8.00;67.90
17827;DHT22;9038;48.208;16.308;2023-01-15T03:07:22;8.00;68.10
17827;DHT22;9038;48.208;16.308;2023-01-15T03:09:26;8.00;68.20
17827;DHT22;9038;48.208;16.308;2023-01-15T03:11:34;8.00;68.30
17827;DHT22;9038;48.208;16.308;2023-01-15T03:13:44;8.00;68.40
17827;DHT22;9038;48.208;16.308;2023-01-15T03:15:52;8.00;68.80
17827;DHT22;9038;48.208;16.308;2023-01-15T03:18:16;7.90;68.80
17827;DHT22;9038;48.208;16.308;2023-01-15T03:20:24;8.00;68.90
17827;DHT22;9038;48.208;16.308;2023-01-15T03:22:31;8.00;68.90
17827;DHT22;9038;48.208;16.308;2023-01-15T03:24:41;7.90;68.80
17827;DHT22;9038;48.208;16.308;2023-01-15T03:26:45;7.90;68.80
17827;DHT22;9038;48.208;16.308;2023-01-15T03:28:47;7.90;69.20
17827;DHT22;9038;48.208;16.308;2023-01-15T03:30:50;7.90;69.30
17827;DHT22;9038;48.208;16.308;2023-01-15T03:32:53;7.90;69.20
17827;DHT22;9038;48.208;16.308;2023-01-15T03:34:56;7.90;69.30
17827;DHT22;9038;48.208;16.308;2023-01-15T03:36:59;7.90;69.30
17827;DHT22;9038;48.208;16.308;2023-01-15T03:39:02;7.90;69.40
17827;DHT22;9038;48.208;16.308;2023-01-15T03:41:13;7.80;69.60
17827;DHT22;9038;48.208;16.308;2023-01-15T03:43:18;7.80;70.40
17827;DHT22;9038;48.208;16.308;2023-01-15T03:45:39;7.80;69.60
17827;DHT22;9038;48.208;16.308;2023-01-15T03:47:51;7.70;69.60
17827;DHT22;9038;48.208;16.308;2023-01-15T03:50:04;7.70;69.70
17827;DHT22;9038;48.208;16.308;2023-01-15T03:52:14;7.70;70.00
17827;DHT22;9038;48.208;16.308;2023-01-15T03:54:21;7.60;70.00
17827;DHT22;9038;48.208;16.308;2023-01-15T03:56:31;7.70;70.00
17827;DHT22;9038;48.208;16.308;2023-01-15T03:58:38;7.70;70.00
17827;DHT22;9038;48.208;16.308;2023-01-15T04:00:45;7.70;70.70
17827;DHT22;9038;48.208;16.308;2023-01-15T04:02:49;7.80;69.90
17827;DHT22;9038;48.208;16.308;2023-01-15T04:04:52;7.80;69.80
17827;DHT22;9038;48.208;16.308;2023-01-15T04:06:57;7.80;69.40
17827;DHT22;9038;48.208;16.308;2023-01-15T04:09:02;7.80;69.30
17827;DHT22;9038;48.208;16.308;2023-01-15T04:11:04;7.90;69.40
17827;DHT22;9038;48.208;16.308;2023-01-15T04:13:06;7.90;69.30
17827;DHT22;9038;48.208;16.308;2023-01-15T04:15:09;7.90;68.90
17827;DHT22;9038;48.208;16.308;2023-01-15T04:17:11;8.00;69.00
17827;DHT22;9038;48.208;16.308;2023-01-15T04:19:13;8.00;68.90
17827;DHT22;9038;48.208;16.308;2023-01-15T04:21:15;8.00;68.80
17827;DHT22;9038;48.208;16.308;2023-01-15T04:23:18;8.00;68.80
17827;DHT22;9038;48.208;16.308;2023-01-15T04:25:20;7.90;68.80
17827;DHT22;9038;48.208;16.308;2023-01-15T04:27:22;7.90;68.80
17827;DHT22;9038;48.208;16.308;2023-01-15T04:29:26;8.00;68.90
17827;DHT22;9038;48.208;16.308;2023-01-15T04:31:28;7.90;68.80
17827;DHT22;9038;48.208;16.308;2023-01-15T04:33:32;7.90;68.80
17827;DHT22;9038;48.208;16.308;2023-01-15T04:35:34;7.90;68.90
17827;DHT22;9038;48.208;16.308;2023-01-15T04:37:38;7.80;69.00
17827;DHT22;9038;48.208;16.308;2023-01-15T04:39:41;7.80;69.00
17827;DHT22;9038;48.208;16.308;2023-01-15T04:41:43;7.80;69.10
17827;DHT22;9038;48.208;16.308;2023-01-15T04:44:03;7.90;69.10
17827;DHT22;9038;48.208;16.308;2023-01-15T04:46:07;7.90;68.80
17827;DHT22;9038;48.208;16.308;2023-01-15T04:48:09;7.90;68.80
17827;DHT22;9038;48.208;16.308;2023-01-15T04:50:12;7.90;68.80
17827;DHT22;9038;48.208;16.308;2023-01-15T04:52:14;7.90;68.60
17827;DHT22;9038;48.208;16.308;2023-01-15T04:54:16;7.90;68.50
17827;DHT22;9038;48.208;16.308;2023-01-15T04:56:20;7.90;68.40
17827;DHT22;9038;48.208;16.308;2023-01-15T04:58:22;7.90;68.30
17827;DHT22;9038;48.208;16.308;2023-01-15T05:00:24;7.90;68.20
17827;DHT22;9038;48.208;16.308;2023-01-15T05:02:26;7.90;68.20
17827;DHT22;9038;48.208;16.308;2023-01-15T05:04:27;7.90;67.80
17827;DHT22;9038;48.208;16.308;2023-01-15T05:06:30;7.90;67.80
17827;DHT22;9038;48.208;16.308;2023-01-15T05:08:32;7.90;67.80
17827;DHT22;9038;48.208;16.308;2023-01-15T05:10:34;7.90;67.80
17827;DHT22;9038;48.208;16.308;2023-01-15T05:12:37;7.90;67.80
17827;DHT22;9038;48.208;16.308;2023-01-15T05:14:39;7.80;67.70
17827;DHT22;9038;48.208;16.308;2023-01-15T05:16:41;7.80;68.00
17827;DHT22;9038;48.208;16.308;2023-01-15T05:18:45;7.80;67.80
17827;DHT22;9038;48.208;16.308;2023-01-15T05:20:47;7.80;68.10
17827;DHT22;9038;48.208;16.308;2023-01-15T05:22:50;7.80;68.10
17827;DHT22;9038;48.208;16.308;2023-01-15T05:24:52;7.80;68.10
17827;DHT22;9038;48.208;16.308;2023-01-15T05:26:54;7.90;68.00
17827;DHT22;9038;48.208;16.308;2023-01-15T05:28:59;7.90;67.90
17827;DHT22;9038;48.208;16.308;2023-01-15T05:31:06;7.90;67.80
17827;DHT22;9038;48.208;16.308;2023-01-15T05:33:08;7.80;67.70
17827;DHT22;9038;48.208;16.308;2023-01-15T05:35:10;7.80;67.70
17827;DHT22;9038;48.208;16.308;2023-01-15T05:37:12;7.70;67.80
17827;DHT22;9038;48.208;16.308;2023-01-15T05:39:14;7.70;67.90
17827;DHT22;9038;48.208;16.308;2023-01-15T05:41:17;7.70;68.00
17827;DHT22;9038;48.208;16.308;2023-01-15T05:43:45;7.80;67.90
17827;DHT22;9038;48.208;16.308;2023-01-15T05:45:48;7.80;67.70
17827;DHT22;9038;48.208;16.308;2023-01-15T05:47:52;7.80;67.50
17827;DHT22;9038;48.208;16.308;2023-01-15T05:49:54;7.80;67.60
17827;DHT22;9038;48.208;16.308;2023-01-15T05:51:56;7.70;67.60
17827;DHT22;9038;48.208;16.308;2023-01-15T05:54:00;7.60;67.90
17827;DHT22;9038;48.208;16.308;2023-01-15T05:56:01;7.60;68.00
17827;DHT22;9038;48.208;16.308;2023-01-15T05:58:03;7.60;68.20
17827;DHT22;9038;48.208;16.308;2023-01-15T06:00:06;7.60;68.30
17827;DHT22;9038;48.208;16.308;2023-01-15T06:02:10;7.60;68.50
17827;DHT22;9038;48.208;16.308;2023-01-15T06:04:12;7.60;68.40
17827;DHT22;9038;48.208;16.308;2023-01-15T06:06:16;7.60;68.10
17827;DHT22;9038;48.208;16.308;2023-01-15T06:08:18;7.60;68.10
17827;DHT22;9038;48.208;16.308;2023-01-15T06:10:20;7.60;68.40
17827;DHT22;9038;48.208;16.308;2023-01-15T06:12:22;7.60;68.30
17827;DHT22;9038;48.208;16.308;2023-01-15T06:14:24;7.60;68.30
17827;DHT22;9038;48.208;16.308;2023-01-15T06:16:26;7.60;68.00
17827;DHT22;9038;48.208;16.308;2023-01-15T06:18:29;7.70;67.90
17827;DHT22;9038;48.208;16.308;2023-01-15T06:20:34;7.70;67.60
17827;DHT22;9038;48.208;16.308;2023-01-15T06:22:36;7.70;67.80
17827;DHT22;9038;48.208;16.308;2023-01-15T06:24:39;7.80;67.70
17827;DHT22;9038;48.208;16.308;2023-01-15T06:26:41;7.80;67.70
17827;DHT22;9038;48.208;16.308;2023-01-15T06:28:43;7.70;67.60
17827;DHT22;9038;48.208;16.308;2023-01-15T06:30:46;7.80;67.70
17827;DHT22;9038;48.208;16.308;2023-01-15T06:32:47;7.80;67.60
17827;DHT22;9038;48.208;16.308;2023-01-15T06:34:51;7.80;67.70
17827;DHT22;9038;48.208;16.308;2023-01-15T06:36:53;7.80;67.60
17827;DHT22;9038;48.208;16.308;2023-01-15T06:38:55;7.80;67.70
17827;DHT22;9038;48.208;16.308;2023-01-15T06:40:58;7.70;67.50
17827;DHT22;9038;48.208;16.308;2023-01-15T06:43:00;7.70;67.60
17827;DHT22;9038;48.208;16.308;2023-01-15T06:45:19;7.60;67.70
17827;DHT22;9038;48.208;16.308;2023-01-15T06:47:38;7.60;67.80
17827;DHT22;9038;48.208;16.308;2023-01-15T06:49:40;7.60;67.90
17827;DHT22;9038;48.208;16.308;2023-01-15T06:51:44;7.70;67.60
17827;DHT22;9038;48.208;16.308;2023-01-15T06:53:46;7.70;67.60
17827;DHT22;9038;48.208;16.308;2023-01-15T06:55:48;7.70;67.60
17827;DHT22;9038;48.208;16.308;2023-01-15T06:57:50;7.70;67.80
17827;DHT22;9038;48.208;16.308;2023-01-15T06:59:52;7.70;67.80
17827;DHT22;9038;48.208;16.308;2023-01-15T07:01:54;7.70;67.60
17827;DHT22;9038;48.208;16.308;2023-01-15T07:03:56;7.70;67.60
17827;DHT22;9038;48.208;16.308;2023-01-15T07:05:58;7.80;67.70
17827;DHT22;9038;48.208;16.308;2023-01-15T07:08:01;7.90;68.10
17827;DHT22;9038;48.208;16.308;2023-01-15T07:10:03;7.90;67.80
17827;DHT22;9038;48.208;16.308;2023-01-15T07:12:05;7.80;68.20
17827;DHT22;9038;48.208;16.308;2023-01-15T07:14:07;7.80;69.00
17827;DHT22;9038;48.208;16.308;2023-01-15T07:16:09;7.70;69.00
17827;DHT22;9038;48.208;16.308;2023-01-15T07:18:26;7.70;69.70
17827;DHT22;9038;48.208;16.308;2023-01-15T07:20:29;7.70;69.70
17827;DHT22;9038;48.208;16.308;2023-01-15T07:22:31;7.70;69.60
17827;DHT22;9038;48.208;16.308;2023-01-15T07:24:34;7.70;69.50
17827;DHT22;9038;48.208;16.308;2023-01-15T07:26:36;7.70;69.40
17827;DHT22;9038;48.208;16.308;2023-01-15T07:28:38;7.60;70.00
17827;DHT22;9038;48.208;16.308;2023-01-15T07:30:40;7.60;70.30
17827;DHT22;9038;48.208;16.308;2023-01-15T07:32:42;7.60;71.00
17827;DHT22;9038;48.208;16.308;2023-01-15T07:34:44;7.60;70.70
17827;DHT22;9038;48.208;16.308;2023-01-15T07:36:46;7.60;70.80
17827;DHT22;9038;48.208;16.308;2023-01-15T07:38:48;7.70;71.50
17827;DHT22;9038;48.208;16.308;2023-01-15T07:40:55;7.60;71.00
17827;DHT22;9038;48.208;16.308;2023-01-15T07:43:10;7.60;71.40
17827;DHT22;9038;48.208;16.308;2023-01-15T07:45:30;7.70;71.30
17827;DHT22;9038;48.208;16.308;2023-01-15T07:47:49;7.70;71.20
17827;DHT22;9038;48.208;16.308;2023-01-15T07:50:10;7.60;71.00
17827;DHT22;9038;48.208;16.308;2023-01-15T07:52:13;7.60;71.30
17827;DHT22;9038;48.208;16.308;2023-01-15T07:54:15;7.60;71.50
17827;DHT22;9038;48.208;16.308;2023-01-15T07:56:18;7.50;71.80
17827;DHT22;9038;48.208;16.308;2023-01-15T07:58:20;7.50;72.80
17827;DHT22;9038;48.208;16.308;2023-01-15T08:00:23;7.50;73.10
17827;DHT22;9038;48.208;16.308;2023-01-15T08:02:25;7.40;72.70
17827;DHT22;9038;48.208;16.308;2023-01-15T08:04:27;7.40;72.20
17827;DHT22;9038;48.208;16.308;2023-01-15T08:06:29;7.40;73.10
17827;DHT22;9038;48.208;16.308;2023-01-15T08:08:31;7.40;73.10
17827;DHT22;9038;48.208;16.308;2023-01-15T08:10:33;7.40;72.90
17827;DHT22;9038;48.208;16.308;2023-01-15T08:12:57;7.30;72.30
17827;DHT22;9038;48.208;16.308;2023-01-15T08:15:16;7.30;72.70
17827;DHT22;9038;48.208;16.308;2023-01-15T08:17:17;7.30;72.90
17827;DHT22;9038;48.208;16.308;2023-01-15T08:19:19;7.30;72.80
17827;DHT22;9038;48.208;16.308;2023-01-15T08:21:21;7.20;73.10
17827;DHT22;9038;48.208;16.308;2023-01-15T08:23:23;7.10;73.50
17827;DHT22;9038;48.208;16.308;2023-01-15T08:25:25;7.20;73.90
17827;DHT22;9038;48.208;16.308;2023-01-15T08:27:27;7.20;73.80
17827;DHT22;9038;48.208;16.308;2023-01-15T08:29:31;7.30;73.70
17827;DHT22;9038;48.208;16.308;2023-01-15T08:31:33;7.40;73.90
17827;DHT22;9038;48.208;16.308;2023-01-15T08:33:36;7.40;73.30
17827;DHT22;9038;48.208;16.308;2023-01-15T08:35:38;7.50;73.30
17827;DHT22;9038;48.208;16.308;2023-01-15T08:37:40;7.60;73.10
17827;DHT22;9038;48.208;16.308;2023-01-15T08:39:42;7.60;72.80
17827;DHT22;9038;48.208;16.308;2023-01-15T08:41:45;7.60;72.70
17827;DHT22;9038;48.208;16.308;2023-01-15T08:43:47;7.50;72.10
17827;DHT22;9038;48.208;16.308;2023-01-15T08:45:50;7.50;72.60
17827;DHT22;9038;48.208;16.308;2023-01-15T08:47:54;7.50;72.70
17827;DHT22;9038;48.208;16.308;2023-01-15T08:49:56;7.50;72.90
17827;DHT22;9038;48.208;16.308;2023-01-15T08:51:58;7.60;72.40
17827;DHT22;9038;48.208;16.308;2023-01-15T08:54:00;7.80;72.20
17827;DHT22;9038;48.208;16.308;2023-01-15T08:56:03;7.70;71.80
17827;DHT22;9038;48.208;16.308;2023-01-15T08:58:05;7.80;72.20
17827;DHT22;9038;48.208;16.308;2023-01-15T09:00:08;8.00;71.60
17827;DHT22;9038;48.208;16.308;2023-01-15T09:02:13;7.90;70.70
17827;DHT22;9038;48.208;16.308;2023-01-15T09:04:19;7.80;70.90
17827;DHT22;9038;48.208;16.308;2023-01-15T09:06:21;7.50;71.30
17827;DHT22;9038;48.208;16.308;2023-01-15T09:08:23;7.40;71.70
17827;DHT22;9038;48.208;16.308;2023-01-15T09:10:25;7.50;72.10
17827;DHT22;9038;48.208;16.308;2023-01-15T09:12:26;7.40;71.40
17827;DHT22;9038;48.208;16.308;2023-01-15T09:14:29;7.30;72.50
17827;DHT22;9038;48.208;16.308;2023-01-15T09:16:30;7.40;73.30
17827;DHT22;9038;48.208;16.308;2023-01-15T09:18:35;7.50;73.70
17827;DHT22;9038;48.208;16.308;2023-01-15T09:20:38;7.50;73.20
17827;DHT22;9038;48.208;16.308;2023-01-15T09:22:40;7.50;73.10
17827;DHT22;9038;48.208;16.308;2023-01-15T09:24:42;7.50;73.00
17827;DHT22;9038;48.208;16.308;2023-01-15T09:26:44;7.60;72.40
17827;DHT22;9038;48.208;16.308;2023-01-15T09:28:47;7.50;72.30
17827;DHT22;9038;48.208;16.308;2023-01-15T09:30:49;7.50;72.80
17827;DHT22;9038;48.208;16.308;2023-01-15T09:32:51;7.40;72.60
17827;DHT22;9038;48.208;16.308;2023-01-15T09:34:54;7.40;73.00
17827;DHT22;9038;48.208;16.308;2023-01-15T09:36:56;7.40;73.30
17827;DHT22;9038;48.208;16.308;2023-01-15T09:38:59;7.50;73.60
17827;DHT22;9038;48.208;16.308;2023-01-15T09:41:09;7.50;73.60
17827;DHT22;9038;48.208;16.308;2023-01-15T09:43:38;7.50;73.10
17827;DHT22;9038;48.208;16.308;2023-01-15T09:45:46;7.50;73.00
17827;DHT22;9038;48.208;16.308;2023-01-15T09:48:01;7.40;73.60
17827;DHT22;9038;48.208;16.308;2023-01-15T09:50:20;7.40;74.10
17827;DHT22;9038;48.208;16.308;2023-01-15T09:52:31;7.50;74.40
17827;DHT22;9038;48.208;16.308;2023-01-15T09:54:47;7.50;74.00
17827;DHT22;9038;48.208;16.308;2023-01-15T09:56:51;7.60;74.40
17827;DHT22;9038;48.208;16.308;2023-01-15T09:58:55;7.60;74.50
17827;DHT22;9038;48.208;16.308;2023-01-15T10:00:58;7.50;74.30
17827;DHT22;9038;48.208;16.308;2023-01-15T10:03:04;7.50;74.40
17827;DHT22;9038;48.208;16.308;2023-01-15T10:05:10;7.50;74.80
17827;DHT22;9038;48.208;16.308;2023-01-15T10:07:18;7.60;74.90
17827;DHT22;9038;48.208;16.308;2023-01-15T10:09:26;7.50;74.40
17827;DHT22;9038;48.208;16.308;2023-01-15T10:11:37;7.60;74.60
17827;DHT22;9038;48.208;16.308;2023-01-15T10:14:03;7.50;74.90
17827;DHT22;9038;48.208;16.308;2023-01-15T10:16:07;7.50;74.40
17827;DHT22;9038;48.208;16.308;2023-01-15T10:18:13;7.60;75.40
17827;DHT22;9038;48.208;16.308;2023-01-15T10:20:46;7.70;75.00
17827;DHT22;9038;48.208;16.308;2023-01-15T10:23:03;7.70;73.60
17827;DHT22;9038;48.208;16.308;2023-01-15T10:25:14;7.60;73.30
17827;DHT22;9038;48.208;16.308;2023-01-15T10:27:19;7.70;74.00
17827;DHT22;9038;48.208;16.308;2023-01-15T10:29:31;7.70;73.60
17827;DHT22;9038;48.208;16.308;2023-01-15T10:31:49;7.60;73.90
17827;DHT22;9038;48.208;16.308;2023-01-15T10:34:02;7.70;73.90
17827;DHT22;9038;48.208;16.308;2023-01-15T10:36:10;7.70;73.30
17827;DHT22;9038;48.208;16.308;2023-01-15T10:38:23;7.70;74.00
17827;DHT22;9038;48.208;16.308;2023-01-15T10:40:39;7.70;74.00
17827;DHT22;9038;48.208;16.308;2023-01-15T10:42:50;7.70;74.00
17827;DHT22;9038;48.208;16.308;2023-01-15T10:45:00;7.80;74.20
17827;DHT22;9038;48.208;16.308;2023-01-15T10:47:11;7.80;74.10
17827;DHT22;9038;48.208;16.308;2023-01-15T10:49:16;7.80;74.70
17827;DHT22;9038;48.208;16.308;2023-01-15T10:51:22;7.80;74.20
17827;DHT22;9038;48.208;16.308;2023-01-15T10:53:32;7.80;74.40
17827;DHT22;9038;48.208;16.308;2023-01-15T10:55:39;7.80;74.10
17827;DHT22;9038;48.208;16.308;2023-01-15T10:57:47;7.80;74.70
17827;DHT22;9038;48.208;16.308;2023-01-15T10:59:55;7.90;75.30
17827;DHT22;9038;48.208;16.308;2023-01-15T11:01:58;8.00;74.50
17827;DHT22;9038;48.208;16.308;2023-01-15T11:04:02;8.00;74.50
17827;DHT22;9038;48.208;16.308;2023-01-15T11:06:07;8.00;74.90
17827;DHT22;9038;48.208;16.308;2023-01-15T11:08:19;8.00;75.20
17827;DHT22;9038;48.208;16.308;2023-01-15T11:10:23;8.10;75.70
17827;DHT22;9038;48.208;16.308;2023-01-15T11:12:27;8.10;75.40
17827;DHT22;9038;48.208;16.308;2023-01-15T11:14:47;8.10;75.50
17827;DHT22;9038;48.208;16.308;2023-01-15T11:17:12;8.00;75.10
17827;DHT22;9038;48.208;16.308;2023-01-15T11:19:35;7.80;74.60
17827;DHT22;9038;48.208;16.308;2023-01-15T11:21:39;7.70;74.70
17827;DHT22;9038;48.208;16.308;2023-01-15T11:23:42;7.60;75.30
17827;DHT22;9038;48.208;16.308;2023-01-15T11:25:51;7.50;75.40
17827;DHT22;9038;48.208;16.308;2023-01-15T11:27:53;7.50;75.70
17827;DHT22;9038;48.208;16.308;2023-01-15T11:29:58;7.40;75.30
17827;DHT22;9038;48.208;16.308;2023-01-15T11:32:00;7.40;76.20
17827;DHT22;9038;48.208;16.308;2023-01-15T11:34:04;7.40;76.00
17827;DHT22;9038;48.208;16.308;2023-01-15T11:36:18;7.40;76.00
17827;DHT22;9038;48.208;16.308;2023-01-15T11:38:21;7.40;76.30
17827;DHT22;9038;48.208;16.308;2023-01-15T11:40:23;7.40;76.80
17827;DHT22;9038;48.208;16.308;2023-01-15T11:42:27;7.40;76.00
17827;DHT22;9038;48.208;16.308;2023-01-15T11:44:53;7.30;76.20
17827;DHT22;9038;48.208;16.308;2023-01-15T11:47:16;7.30;76.40
17827;DHT22;9038;48.208;16.308;2023-01-15T11:49:35;7.30;76.40
17827;DHT22;9038;48.208;16.308;2023-01-15T11:51:56;7.40;76.90
17827;DHT22;9038;48.208;16.308;2023-01-15T11:54:02;7.50;76.50
17827;DHT22;9038;48.208;16.308;2023-01-15T11:56:08;7.60;76.40
17827;DHT22;9038;48.208;16.308;2023-01-15T11:58:12;7.60;76.30
17827;DHT22;9038;48.208;16.308;2023-01-15T12:00:20;7.50;75.80
17827;DHT22;9038;48.208;16.308;2023-01-15T12:02:30;7.40;76.50
17827;DHT22;9038;48.208;16.308;2023-01-15T12:04:37;7.30;77.10
17827;DHT22;9038;48.208;16.308;2023-01-15T12:06:40;7.30;77.10
17827;DHT22;9038;48.208;16.308;2023-01-15T12:08:45;7.20;77.10
17827;DHT22;9038;48.208;16.308;2023-01-15T12:10:54;7.20;77.50
17827;DHT22;9038;48.208;16.308;2023-01-15T12:13:09;7.30;78.30
17827;DHT22;9038;48.208;16.308;2023-01-15T12:15:28;7.30;77.80
17827;DHT22;9038;48.208;16.308;2023-01-15T12:17:54;7.30;77.30
17827;DHT22;9038;48.208;16.308;2023-01-15T12:20:09;7.30;77.90
17827;DHT22;9038;48.208;16.308;2023-01-15T12:22:28;7.30;79.00
17827;DHT22;9038;48.208;16.308;2023-01-15T12:24:48;7.30;78.90
17827;DHT22;9038;48.208;16.308;2023-01-15T12:27:01;7.30;78.90
17827;DHT22;9038;48.208;16.308;2023-01-15T12:29:11;7.40;79.20
17827;DHT22;9038;48.208;16.308;2023-01-15T12:31:19;7.50;78.40
17827;DHT22;9038;48.208;16.308;2023-01-15T12:33:34;7.60;78.40
17827;DHT22;9038;48.208;16.308;2023-01-15T12:35:41;7.50;77.60
17827;DHT22;9038;48.208;16.308;2023-01-15T12:37:49;7.40;78.20
17827;DHT22;9038;48.208;16.308;2023-01-15T12:39:56;7.40;79.40
17827;DHT22;9038;48.208;16.308;2023-01-15T12:42:02;7.40;78.70
17827;DHT22;9038;48.208;16.308;2023-01-15T12:44:30;7.40;78.70
17827;DHT22;9038;48.208;16.308;2023-01-15T12:46:53;7.40;79.20
17827;DHT22;9038;48.208;16.308;2023-01-15T12:49:00;7.60;79.90
17827;DHT22;9038;48.208;16.308;2023-01-15T12:51:05;7.70;78.90
17827;DHT22;9038;48.208;16.308;2023-01-15T12:53:12;7.80;78.80
17827;DHT22;9038;48.208;16.308;2023-01-15T12:55:20;7.80;78.70
17827;DHT22;9038;48.208;16.308;2023-01-15T12:57:33;7.70;78.00
17827;DHT22;9038;48.208;16.308;2023-01-15T12:59:40;7.70;78.40
17827;DHT22;9038;48.208;16.308;2023-01-15T13:01:50;7.60;79.30
17827;DHT22;9038;48.208;16.308;2023-01-15T13:04:07;7.50;79.10
17827;DHT22;9038;48.208;16.308;2023-01-15T13:06:11;7.60;80.00
17827;DHT22;9038;48.208;16.308;2023-01-15T13:08:21;7.70;80.40
17827;DHT22;9038;48.208;16.308;2023-01-15T13:10:26;7.80;79.30
17827;DHT22;9038;48.208;16.308;2023-01-15T13:12:30;7.70;79.20
17827;DHT22;9038;48.208;16.308;2023-01-15T13:14:32;7.70;79.00
17827;DHT22;9038;48.208;16.308;2023-01-15T13:16:41;7.70;79.30
17827;DHT22;9038;48.208;16.308;2023-01-15T13:18:52;7.70;79.10
17827;DHT22;9038;48.208;16.308;2023-01-15T13:20:57;7.70;79.00
17827;DHT22;9038;48.208;16.308;2023-01-15T13:23:08;7.70;79.30
17827;DHT22;9038;48.208;16.308;2023-01-15T13:25:29;7.60;79.80
17827;DHT22;9038;48.208;16.308;2023-01-15T13:27:48;7.50;80.20